createdAt,value
2018-09-16T00:00:44.538Z,0
2018-09-16T00:01:45.044Z,0
2018-09-16T00:02:44.266Z,0
2018-09-16T00:03:45.013Z,0
2018-09-16T00:04:45.009Z,0
2018-09-16T00:05:44.749Z,0
2018-09-16T00:06:44.992Z,0
2018-09-16T00:07:44.728Z,0
2018-09-16T00:08:44.724Z,0
2018-09-16T00:09:44.717Z,0
2018-09-16T00:10:44.707Z,0
2018-09-16T00:11:44.955Z,0
2018-09-16T00:12:44.696Z,0
2018-09-16T00:13:44.937Z,0
2018-09-16T00:14:44.876Z,0
2018-09-16T00:15:44.670Z,0
2018-09-16T00:16:44.663Z,0
2018-09-16T00:17:44.408Z,0
2018-09-16T00:18:44.648Z,0
2018-09-16T00:19:44.390Z,0
2018-09-16T00:20:44.646Z,0
2018-09-16T00:21:44.371Z,0
2018-09-16T00:22:44.866Z,0
2018-09-16T00:23:44.863Z,0
2018-09-16T00:24:44.915Z,0
2018-09-16T00:25:44.855Z,0
2018-09-16T00:26:44.854Z,0
2018-09-16T00:27:44.580Z,0
2018-09-16T00:28:44.819Z,0
2018-09-16T00:29:44.817Z,0
2018-09-16T00:30:44.805Z,0
2018-09-16T00:31:44.804Z,0
2018-09-16T00:32:44.793Z,0
2018-09-16T00:33:44.278Z,0
2018-09-16T00:34:44.526Z,0
2018-09-16T00:35:44.263Z,0
2018-09-16T00:36:44.762Z,0
2018-09-16T00:37:44.501Z,0
2018-09-16T00:38:44.491Z,0
2018-09-16T00:39:44.741Z,0
2018-09-16T00:40:44.727Z,0
2018-09-16T00:41:44.722Z,0
2018-09-16T00:42:44.466Z,0
2018-09-16T00:43:44.707Z,0
2018-09-16T00:44:44.697Z,0
2018-09-16T00:45:44.686Z,0
2018-09-16T00:46:44.431Z,0
2018-09-16T00:47:44.423Z,0
2018-09-16T00:48:44.664Z,0
2018-09-16T00:49:44.661Z,0
2018-09-16T00:50:44.694Z,0
2018-09-16T00:51:44.642Z,0
2018-09-16T00:52:44.630Z,0
2018-09-16T00:53:44.124Z,0
2018-09-16T00:54:44.639Z,0
2018-09-16T00:55:44.610Z,0
2018-09-16T00:56:44.604Z,0
2018-09-16T00:57:44.594Z,0
2018-09-16T00:58:44.343Z,0
2018-09-16T00:59:44.587Z,0
2018-09-16T01:00:44.320Z,0
2018-09-16T01:01:44.563Z,0
2018-09-16T01:02:44.314Z,0
2018-09-16T01:03:44.299Z,0
2018-09-16T01:04:44.536Z,0
2018-09-16T01:05:44.284Z,0
2018-09-16T01:06:44.528Z,0
2018-09-16T01:07:44.575Z,0
2018-09-16T01:08:44.506Z,0
2018-09-16T01:09:44.511Z,0
2018-09-16T01:10:44.497Z,0
2018-09-16T01:11:44.234Z,0
2018-09-16T01:12:44.222Z,0
2018-09-16T01:13:44.470Z,0
2018-09-16T01:14:44.460Z,0
2018-09-16T01:15:44.207Z,0
2018-09-16T01:16:44.446Z,0
2018-09-16T01:17:44.458Z,0
2018-09-16T01:18:44.173Z,0
2018-09-16T01:19:44.172Z,0
2018-09-16T01:20:44.166Z,0
2018-09-16T01:21:44.162Z,0
2018-09-16T01:22:44.146Z,0
2018-09-16T01:23:44.449Z,0
2018-09-16T01:24:44.376Z,0
2018-09-16T01:25:44.375Z,0
2018-09-16T01:26:44.375Z,0
2018-09-16T01:27:44.109Z,0
2018-09-16T01:28:44.351Z,0
2018-09-16T01:29:44.091Z,0
2018-09-16T01:30:43.830Z,0
2018-09-16T01:31:44.081Z,0
2018-09-16T01:32:43.563Z,0
2018-09-16T01:33:43.551Z,0
2018-09-16T01:34:44.313Z,0
2018-09-16T01:35:44.288Z,0
2018-09-16T01:36:44.290Z,0
2018-09-16T01:37:44.272Z,0
2018-09-16T01:38:44.270Z,0
2018-09-16T01:39:43.754Z,0
2018-09-16T01:40:44.258Z,0
2018-09-16T01:41:44.245Z,0
2018-09-16T01:42:43.982Z,0
2018-09-16T01:43:44.229Z,0
2018-09-16T01:44:43.994Z,0
2018-09-16T01:45:44.208Z,0
2018-09-16T01:46:44.204Z,0
2018-09-16T01:47:43.958Z,0
2018-09-16T01:48:43.428Z,0
2018-09-16T01:49:44.181Z,0
2018-09-16T01:50:44.222Z,0
2018-09-16T01:51:43.656Z,0
2018-09-16T01:52:44.152Z,0
2018-09-16T01:53:44.159Z,0
2018-09-16T01:54:44.139Z,0
2018-09-16T01:55:44.136Z,0
2018-09-16T01:56:43.875Z,0
2018-09-16T01:57:44.115Z,0
2018-09-16T01:58:44.108Z,0
2018-09-16T01:59:43.849Z,0
2018-09-16T02:00:43.849Z,0
2018-09-16T02:01:43.831Z,0
2018-09-16T02:02:43.826Z,0
2018-09-16T02:03:44.067Z,0
2018-09-16T02:04:44.056Z,0
2018-09-16T02:05:44.059Z,0
2018-09-16T02:06:44.037Z,0
2018-09-16T02:07:44.033Z,0
2018-09-16T02:08:44.022Z,0
2018-09-16T02:09:44.016Z,0
2018-09-16T02:10:44.006Z,0
2018-09-16T02:11:43.998Z,0
2018-09-16T02:12:44.001Z,0
2018-09-16T02:13:43.984Z,0
2018-09-16T02:14:43.973Z,0
2018-09-16T02:15:43.718Z,0
2018-09-16T02:16:43.455Z,0
2018-09-16T02:17:43.698Z,0
2018-09-16T02:18:44.190Z,0
2018-09-16T02:19:43.933Z,0
2018-09-16T02:20:43.926Z,0
2018-09-16T02:21:43.672Z,0
2018-09-16T02:22:43.911Z,0
2018-09-16T02:23:43.900Z,0
2018-09-16T02:24:43.649Z,0
2018-09-16T02:25:43.380Z,0
2018-09-16T02:26:43.876Z,0
2018-09-16T02:27:43.617Z,0
2018-09-16T02:28:43.863Z,0
2018-09-16T02:29:43.911Z,0
2018-09-16T02:30:43.844Z,0
2018-09-16T02:31:43.337Z,0
2018-09-16T02:32:43.577Z,0
2018-09-16T02:33:43.865Z,0
2018-09-16T02:34:43.570Z,0
2018-09-16T02:35:43.556Z,0
2018-09-16T02:36:43.543Z,0
2018-09-16T02:37:43.538Z,0
2018-09-16T02:38:43.533Z,0
2018-09-16T02:39:43.524Z,0
2018-09-16T02:40:43.769Z,0
2018-09-16T02:41:43.782Z,0
2018-09-16T02:42:43.745Z,0
2018-09-16T02:43:43.622Z,0
2018-09-16T02:44:43.480Z,0
2018-09-16T02:45:43.220Z,0
2018-09-16T02:46:43.712Z,0
2018-09-16T02:47:43.199Z,0
2018-09-16T02:48:43.693Z,0
2018-09-16T02:49:43.192Z,0
2018-09-16T02:50:43.931Z,0
2018-09-16T02:51:43.672Z,0
2018-09-16T02:52:43.666Z,0
2018-09-16T02:53:43.655Z,0
2018-09-16T02:54:43.395Z,0
2018-09-16T02:55:43.395Z,0
2018-09-16T02:56:43.377Z,0
2018-09-16T02:57:43.370Z,0
2018-09-16T02:58:43.364Z,0
2018-09-16T02:59:43.371Z,0
2018-09-16T03:00:44.121Z,0
2018-09-16T03:01:43.374Z,0
2018-09-16T03:02:43.336Z,0
2018-09-16T03:03:43.331Z,0
2018-09-16T03:04:43.314Z,0
2018-09-16T03:05:43.056Z,0
2018-09-16T03:06:43.304Z,0
2018-09-16T03:07:43.543Z,0
2018-09-16T03:08:43.538Z,0
2018-09-16T03:09:43.289Z,0
2018-09-16T03:10:43.011Z,0
2018-09-16T03:11:44.386Z,0
2018-09-16T03:12:43.508Z,0
2018-09-16T03:13:43.246Z,0
2018-09-16T03:14:43.486Z,0
2018-09-16T03:15:43.473Z,0
2018-09-16T03:16:43.468Z,0
2018-09-16T03:17:43.204Z,0
2018-09-16T03:18:43.827Z,0
2018-09-16T03:19:43.448Z,0
2018-09-16T03:20:43.432Z,0
2018-09-16T03:21:43.692Z,0
2018-09-16T03:22:43.166Z,0
2018-09-16T03:23:43.165Z,0
2018-09-16T03:24:43.153Z,0
2018-09-16T03:25:43.148Z,0
2018-09-16T03:26:43.149Z,0
2018-09-16T03:27:42.876Z,0
2018-09-16T03:28:42.869Z,0
2018-09-16T03:29:43.367Z,0
2018-09-16T03:30:43.110Z,0
2018-09-16T03:31:42.861Z,0
2018-09-16T03:32:43.089Z,0
2018-09-16T03:33:43.082Z,0
2018-09-16T03:34:43.348Z,0
2018-09-16T03:35:43.311Z,0
2018-09-16T03:36:43.054Z,0
2018-09-16T03:37:43.047Z,0
2018-09-16T03:38:43.289Z,0
2018-09-16T03:39:43.031Z,0
2018-09-16T03:40:43.279Z,0
2018-09-16T03:41:43.264Z,0
2018-09-16T03:42:43.005Z,0
2018-09-16T03:43:43.251Z,0
2018-09-16T03:44:43.241Z,0
2018-09-16T03:45:43.244Z,0
2018-09-16T03:46:43.402Z,0
2018-09-16T03:47:43.223Z,0
2018-09-16T03:48:42.456Z,0
2018-09-16T03:49:42.952Z,0
2018-09-16T03:50:43.095Z,0
2018-09-16T03:51:43.221Z,0
2018-09-16T03:52:42.921Z,0
2018-09-16T03:53:42.913Z,0
2018-09-16T03:54:42.660Z,0
2018-09-16T03:55:42.896Z,0
2018-09-16T03:56:43.141Z,0
2018-09-16T03:57:43.929Z,0
2018-09-16T03:58:43.127Z,0
2018-09-16T03:59:42.866Z,0
2018-09-16T04:00:43.107Z,0
2018-09-16T04:01:42.594Z,0
2018-09-16T04:02:42.603Z,0
2018-09-16T04:03:42.831Z,0
2018-09-16T04:04:43.072Z,0
2018-09-16T04:05:43.079Z,0
2018-09-16T04:06:43.056Z,0
2018-09-16T04:07:42.795Z,0
2018-09-16T04:08:42.538Z,0
2018-09-16T04:09:43.029Z,0
2018-09-16T04:10:43.026Z,0
2018-09-16T04:11:42.799Z,0
2018-09-16T04:12:42.515Z,0
2018-09-16T04:13:43.011Z,0
2018-09-16T04:14:42.992Z,0
2018-09-16T04:15:42.983Z,0
2018-09-16T04:16:42.729Z,0
2018-09-16T04:17:42.966Z,0
2018-09-16T04:18:42.973Z,0
2018-09-16T04:19:42.948Z,0
2018-09-16T04:20:42.688Z,0
2018-09-16T04:21:42.677Z,0
2018-09-16T04:22:42.683Z,0
2018-09-16T04:23:42.660Z,0
2018-09-16T04:24:42.908Z,0
2018-09-16T04:25:42.911Z,0
2018-09-16T04:26:42.900Z,5
2018-09-16T04:27:42.645Z,5
2018-09-16T04:28:42.371Z,5
2018-09-16T04:29:42.616Z,5
2018-09-16T04:30:42.851Z,5
2018-09-16T04:31:42.606Z,5
2018-09-16T04:32:42.838Z,5
2018-09-16T04:33:43.067Z,5
2018-09-16T04:34:42.568Z,5
2018-09-16T04:35:42.562Z,5
2018-09-16T04:36:42.805Z,5
2018-09-16T04:37:42.544Z,5
2018-09-16T04:38:42.543Z,10
2018-09-16T04:39:42.532Z,10
2018-09-16T04:40:42.778Z,10
2018-09-16T04:41:42.509Z,10
2018-09-16T04:42:42.508Z,15
2018-09-16T04:43:42.242Z,15
2018-09-16T04:44:42.519Z,15
2018-09-16T04:45:42.475Z,20
2018-09-16T04:46:42.717Z,20
2018-09-16T04:47:42.462Z,20
2018-09-16T04:48:42.715Z,25
2018-09-16T04:49:42.447Z,25
2018-09-16T04:50:42.682Z,30
2018-09-16T04:51:42.676Z,30
2018-09-16T04:52:42.418Z,30
2018-09-16T04:53:42.406Z,35
2018-09-16T04:54:42.905Z,35
2018-09-16T04:55:42.390Z,40
2018-09-16T04:56:42.379Z,40
2018-09-16T04:57:42.372Z,45
2018-09-16T04:58:42.368Z,50
2018-09-16T04:59:42.613Z,50
2018-09-16T05:00:42.629Z,55
2018-09-16T05:01:42.349Z,55
2018-09-16T05:02:42.332Z,60
2018-09-16T05:03:42.322Z,60
2018-09-16T05:04:42.571Z,65
2018-09-16T05:05:42.306Z,70
2018-09-16T05:06:42.296Z,75
2018-09-16T05:07:42.541Z,75
2018-09-16T05:08:42.282Z,80
2018-09-16T05:09:42.525Z,90
2018-09-16T05:10:43.054Z,95
2018-09-16T05:11:42.512Z,95
2018-09-16T05:12:41.997Z,100
2018-09-16T05:13:42.259Z,100
2018-09-16T05:14:42.243Z,100
2018-09-16T05:15:42.229Z,105
2018-09-16T05:16:42.222Z,105
2018-09-16T05:17:42.461Z,110
2018-09-16T05:18:42.452Z,110
2018-09-16T05:19:42.198Z,115
2018-09-16T05:20:42.189Z,120
2018-09-16T05:21:42.439Z,110
2018-09-16T05:22:42.935Z,110
2018-09-16T05:23:42.172Z,105
2018-09-16T05:24:42.161Z,105
2018-09-16T05:25:42.402Z,105
2018-09-16T05:26:42.399Z,105
2018-09-16T05:27:42.144Z,110
2018-09-16T05:28:42.128Z,110
2018-09-16T05:29:42.375Z,110
2018-09-16T05:30:42.376Z,115
2018-09-16T05:31:42.293Z,120
2018-09-16T05:32:42.360Z,125
2018-09-16T05:33:42.098Z,130
2018-09-16T05:34:42.090Z,135
2018-09-16T05:35:42.338Z,145
2018-09-16T05:36:42.077Z,150
2018-09-16T05:37:42.342Z,145
2018-09-16T05:38:42.062Z,145
2018-09-16T05:39:42.307Z,150
2018-09-16T05:40:42.048Z,160
2018-09-16T05:41:41.799Z,165
2018-09-16T05:42:42.046Z,170
2018-09-16T05:43:42.296Z,185
2018-09-16T05:44:42.026Z,195
2018-09-16T05:45:42.268Z,200
2018-09-16T05:46:41.763Z,215
2018-09-16T05:47:42.255Z,215
2018-09-16T05:48:42.013Z,215
2018-09-16T05:49:42.259Z,220
2018-09-16T05:50:41.988Z,235
2018-09-16T05:51:42.237Z,255
2018-09-16T05:52:42.635Z,260
2018-09-16T05:53:43.038Z,275
2018-09-16T05:54:42.225Z,280
2018-09-16T05:55:42.259Z,280
2018-09-16T05:56:42.208Z,300
2018-09-16T05:57:42.199Z,285
2018-09-16T05:58:42.197Z,300
2018-09-16T05:59:42.256Z,310
2018-09-16T06:00:42.199Z,310
2018-09-16T06:01:42.191Z,300
2018-09-16T06:02:42.180Z,290
2018-09-16T06:03:41.928Z,280
2018-09-16T06:04:42.299Z,275
2018-09-16T06:05:42.168Z,280
2018-09-16T06:06:42.158Z,295
2018-09-16T06:07:42.161Z,320
2018-09-16T06:08:42.164Z,330
2018-09-16T06:09:42.160Z,320
2018-09-16T06:10:42.247Z,385
2018-09-16T06:11:41.894Z,405
2018-09-16T06:12:42.141Z,415
2018-09-16T06:13:41.894Z,415
2018-09-16T06:14:41.887Z,420
2018-09-16T06:15:42.136Z,385
2018-09-16T06:16:42.129Z,425
2018-09-16T06:17:41.878Z,415
2018-09-16T06:18:41.878Z,440
2018-09-16T06:19:42.162Z,430
2018-09-16T06:20:42.122Z,435
2018-09-16T06:21:42.121Z,465
2018-09-16T06:22:42.307Z,475
2018-09-16T06:23:41.619Z,460
2018-09-16T06:24:41.880Z,495
2018-09-16T06:25:42.127Z,510
2018-09-16T06:26:41.865Z,530
2018-09-16T06:27:41.613Z,540
2018-09-16T06:28:42.118Z,550
2018-09-16T06:29:41.864Z,555
2018-09-16T06:30:42.167Z,565
2018-09-16T06:31:42.112Z,565
2018-09-16T06:32:42.120Z,560
2018-09-16T06:33:42.650Z,550
2018-09-16T06:34:42.112Z,550
2018-09-16T06:35:41.612Z,555
2018-09-16T06:36:41.863Z,575
2018-09-16T06:37:41.878Z,585
2018-09-16T06:38:41.875Z,580
2018-09-16T06:39:42.118Z,545
2018-09-16T06:40:42.127Z,555
2018-09-16T06:41:42.128Z,515
2018-09-16T06:42:42.130Z,520
2018-09-16T06:43:42.143Z,520
2018-09-16T06:44:42.128Z,545
2018-09-16T06:45:42.129Z,565
2018-09-16T06:46:41.889Z,580
2018-09-16T06:47:42.141Z,610
2018-09-16T06:48:41.891Z,610
2018-09-16T06:49:41.893Z,630
2018-09-16T06:50:41.900Z,635
2018-09-16T06:51:42.151Z,640
2018-09-16T06:52:42.159Z,650
2018-09-16T06:53:42.164Z,645
2018-09-16T06:54:42.250Z,660
2018-09-16T06:55:43.596Z,675
2018-09-16T06:56:42.175Z,675
2018-09-16T06:57:41.922Z,665
2018-09-16T06:58:41.925Z,690
2018-09-16T06:59:42.434Z,735
2018-09-16T07:00:41.771Z,730
2018-09-16T07:01:42.200Z,735
2018-09-16T07:02:42.194Z,735
2018-09-16T07:03:42.193Z,735
2018-09-16T07:04:42.212Z,760
2018-09-16T07:05:42.207Z,760
2018-09-16T07:06:42.210Z,870
2018-09-16T07:07:42.218Z,1000
2018-09-16T07:08:42.225Z,1025
2018-09-16T07:09:41.976Z,1025
2018-09-16T07:10:42.236Z,1050
2018-09-16T07:11:42.237Z,1070
2018-09-16T07:12:42.250Z,1100
2018-09-16T07:13:42.245Z,1095
2018-09-16T07:14:42.534Z,1090
2018-09-16T07:15:41.766Z,1035
2018-09-16T07:16:42.015Z,1065
2018-09-16T07:17:42.271Z,1105
2018-09-16T07:18:41.776Z,980
2018-09-16T07:19:42.290Z,1035
2018-09-16T07:20:43.771Z,1115
2018-09-16T07:21:42.059Z,1100
2018-09-16T07:22:42.074Z,1115
2018-09-16T07:23:42.071Z,1125
2018-09-16T07:24:42.321Z,1075
2018-09-16T07:25:42.337Z,1070
2018-09-16T07:26:42.157Z,1095
2018-09-16T07:27:42.346Z,1175
2018-09-16T07:28:42.352Z,1135
2018-09-16T07:29:42.369Z,1130
2018-09-16T07:30:42.115Z,1125
2018-09-16T07:31:42.382Z,1140
2018-09-16T07:32:42.389Z,1065
2018-09-16T07:33:42.655Z,895
2018-09-16T07:34:42.155Z,855
2018-09-16T07:35:42.412Z,875
2018-09-16T07:36:42.427Z,850
2018-09-16T07:37:42.174Z,845
2018-09-16T07:38:42.434Z,850
2018-09-16T07:39:42.191Z,830
2018-09-16T07:40:42.203Z,855
2018-09-16T07:41:42.460Z,860
2018-09-16T07:42:42.213Z,870
2018-09-16T07:43:42.484Z,860
2018-09-16T07:44:41.980Z,720
2018-09-16T07:45:42.496Z,870
2018-09-16T07:46:42.496Z,805
2018-09-16T07:47:42.254Z,740
2018-09-16T07:48:42.517Z,795
2018-09-16T07:49:42.270Z,840
2018-09-16T07:50:42.277Z,860
2018-09-16T07:51:42.790Z,835
2018-09-16T07:52:42.636Z,840
2018-09-16T07:53:42.551Z,845
2018-09-16T07:54:42.303Z,840
2018-09-16T07:55:42.315Z,865
2018-09-16T07:56:42.619Z,880
2018-09-16T07:57:41.821Z,880
2018-09-16T07:58:42.334Z,865
2018-09-16T07:59:42.087Z,850
2018-09-16T08:00:43.066Z,815
2018-09-16T08:01:42.355Z,765
2018-09-16T08:02:42.623Z,740
2018-09-16T08:03:42.615Z,735
2018-09-16T08:04:42.370Z,565
2018-09-16T08:05:42.481Z,420
2018-09-16T08:06:42.140Z,400
2018-09-16T08:07:42.137Z,395
2018-09-16T08:08:42.646Z,390
2018-09-16T08:09:42.164Z,395
2018-09-16T08:10:42.151Z,405
2018-09-16T08:11:42.658Z,405
2018-09-16T08:12:42.160Z,415
2018-09-16T08:13:42.916Z,420
2018-09-16T08:14:42.178Z,425
2018-09-16T08:15:42.227Z,430
2018-09-16T08:16:42.435Z,430
2018-09-16T08:17:42.697Z,430
2018-09-16T08:18:42.695Z,435
2018-09-16T08:19:42.691Z,445
2018-09-16T08:20:42.697Z,450
2018-09-16T08:21:42.701Z,455
2018-09-16T08:22:42.452Z,450
2018-09-16T08:23:42.450Z,450
2018-09-16T08:24:42.454Z,450
2018-09-16T08:25:42.706Z,450
2018-09-16T08:26:42.464Z,445
2018-09-16T08:27:42.502Z,445
2018-09-16T08:28:43.245Z,440
2018-09-16T08:29:42.469Z,435
2018-09-16T08:30:42.715Z,425
2018-09-16T08:31:41.965Z,425
2018-09-16T08:32:42.471Z,440
2018-09-16T08:33:42.723Z,445
2018-09-16T08:34:42.731Z,455
2018-09-16T08:35:42.723Z,450
2018-09-16T08:36:42.472Z,445
2018-09-16T08:37:41.972Z,440
2018-09-16T08:38:42.727Z,435
2018-09-16T08:39:42.727Z,425
2018-09-16T08:40:42.730Z,425
2018-09-16T08:41:42.745Z,420
2018-09-16T08:42:42.230Z,420
2018-09-16T08:43:42.488Z,425
2018-09-16T08:44:42.488Z,430
2018-09-16T08:45:42.909Z,430
2018-09-16T08:46:42.740Z,435
2018-09-16T08:47:42.489Z,435
2018-09-16T08:48:42.746Z,430
2018-09-16T08:49:42.736Z,430
2018-09-16T08:50:42.487Z,425
2018-09-16T08:51:42.741Z,420
2018-09-16T08:52:42.744Z,420
2018-09-16T08:53:42.493Z,415
2018-09-16T08:54:42.744Z,415
2018-09-16T08:55:42.501Z,405
2018-09-16T08:56:42.751Z,400
2018-09-16T08:57:42.745Z,400
2018-09-16T08:58:42.893Z,400
2018-09-16T08:59:42.758Z,400
2018-09-16T09:00:42.505Z,390
2018-09-16T09:01:42.749Z,390
2018-09-16T09:02:42.749Z,390
2018-09-16T09:03:42.501Z,390
2018-09-16T09:04:42.745Z,390
2018-09-16T09:05:42.745Z,375
2018-09-16T09:06:42.491Z,380
2018-09-16T09:07:42.494Z,385
2018-09-16T09:08:42.744Z,370
2018-09-16T09:09:42.744Z,365
2018-09-16T09:10:42.803Z,360
2018-09-16T09:11:42.243Z,355
2018-09-16T09:12:42.760Z,355
2018-09-16T09:13:42.495Z,360
2018-09-16T09:14:42.752Z,360
2018-09-16T09:15:42.746Z,365
2018-09-16T09:16:42.755Z,365
2018-09-16T09:17:42.495Z,365
2018-09-16T09:18:42.749Z,355
2018-09-16T09:19:42.493Z,360
2018-09-16T09:20:42.745Z,370
2018-09-16T09:21:42.490Z,370
2018-09-16T09:22:42.488Z,385
2018-09-16T09:23:42.795Z,390
2018-09-16T09:24:42.494Z,405
2018-09-16T09:25:42.744Z,405
2018-09-16T09:26:42.743Z,405
2018-09-16T09:27:42.741Z,380
2018-09-16T09:28:42.498Z,360
2018-09-16T09:29:42.494Z,345
2018-09-16T09:30:42.746Z,345
2018-09-16T09:31:42.745Z,320
2018-09-16T09:32:42.491Z,320
2018-09-16T09:33:42.738Z,320
2018-09-16T09:34:42.746Z,320
2018-09-16T09:35:42.481Z,310
2018-09-16T09:36:42.797Z,315
2018-09-16T09:37:42.496Z,320
2018-09-16T09:38:42.753Z,330
2018-09-16T09:39:42.739Z,335
2018-09-16T09:40:42.746Z,340
2018-09-16T09:41:42.233Z,350
2018-09-16T09:42:42.601Z,360
2018-09-16T09:43:42.737Z,360
2018-09-16T09:44:42.487Z,355
2018-09-16T09:45:42.485Z,350
2018-09-16T09:46:42.235Z,390
2018-09-16T09:47:42.488Z,410
2018-09-16T09:48:42.736Z,415
2018-09-16T09:49:42.493Z,445
2018-09-16T09:50:42.237Z,470
2018-09-16T09:51:42.482Z,475
2018-09-16T09:52:42.490Z,460
2018-09-16T09:53:42.861Z,450
2018-09-16T09:54:42.760Z,440
2018-09-16T09:55:42.485Z,420
2018-09-16T09:56:42.733Z,400
2018-09-16T09:57:42.489Z,395
2018-09-16T09:58:42.487Z,405
2018-09-16T09:59:42.750Z,405
2018-09-16T10:00:42.748Z,435
2018-09-16T10:01:42.733Z,455
2018-09-16T10:02:42.232Z,445
2018-09-16T10:03:42.750Z,425
2018-09-16T10:04:42.736Z,430
2018-09-16T10:05:42.732Z,440
2018-09-16T10:06:42.504Z,430
2018-09-16T10:07:42.739Z,415
2018-09-16T10:08:42.749Z,405
2018-09-16T10:09:42.742Z,390
2018-09-16T10:10:42.483Z,385
2018-09-16T10:11:42.740Z,405
2018-09-16T10:12:42.489Z,425
2018-09-16T10:13:42.234Z,410
2018-09-16T10:14:42.872Z,385
2018-09-16T10:15:42.745Z,370
2018-09-16T10:16:42.737Z,370
2018-09-16T10:17:42.742Z,365
2018-09-16T10:18:42.752Z,365
2018-09-16T10:19:42.749Z,350
2018-09-16T10:20:42.739Z,360
2018-09-16T10:21:42.800Z,370
2018-09-16T10:22:42.681Z,360
2018-09-16T10:23:42.748Z,350
2018-09-16T10:24:42.748Z,340
2018-09-16T10:25:42.746Z,345
2018-09-16T10:26:42.547Z,350
2018-09-16T10:27:42.491Z,340
2018-09-16T10:28:42.743Z,345
2018-09-16T10:29:42.745Z,360
2018-09-16T10:30:42.765Z,375
2018-09-16T10:31:42.497Z,360
2018-09-16T10:32:42.742Z,325
2018-09-16T10:33:42.496Z,315
2018-09-16T10:34:42.747Z,320
2018-09-16T10:35:42.492Z,325
2018-09-16T10:36:42.740Z,340
2018-09-16T10:37:42.241Z,365
2018-09-16T10:38:42.942Z,380
2018-09-16T10:39:42.515Z,380
2018-09-16T10:40:42.508Z,385
2018-09-16T10:41:42.757Z,370
2018-09-16T10:42:42.761Z,365
2018-09-16T10:43:42.756Z,345
2018-09-16T10:44:42.759Z,345
2018-09-16T10:45:42.250Z,365
2018-09-16T10:46:42.761Z,395
2018-09-16T10:47:42.499Z,405
2018-09-16T10:48:42.759Z,380
2018-09-16T10:49:42.751Z,335
2018-09-16T10:50:42.756Z,305
2018-09-16T10:51:42.755Z,315
2018-09-16T10:52:42.761Z,340
2018-09-16T10:53:42.259Z,350
2018-09-16T10:54:42.502Z,355
2018-09-16T10:55:42.752Z,375
2018-09-16T10:56:42.753Z,395
2018-09-16T10:57:42.756Z,430
2018-09-16T10:58:42.518Z,460
2018-09-16T10:59:42.500Z,470
2018-09-16T11:00:42.810Z,465
2018-09-16T11:01:42.752Z,460
2018-09-16T11:02:42.760Z,445
2018-09-16T11:03:42.506Z,435
2018-09-16T11:04:42.760Z,430
2018-09-16T11:05:42.755Z,435
2018-09-16T11:06:42.552Z,445
2018-09-16T11:07:42.514Z,445
2018-09-16T11:08:42.253Z,450
2018-09-16T11:09:42.516Z,455
2018-09-16T11:10:42.777Z,480
2018-09-16T11:11:42.256Z,505
2018-09-16T11:12:42.755Z,500
2018-09-16T11:13:42.504Z,505
2018-09-16T11:14:42.761Z,510
2018-09-16T11:15:42.558Z,500
2018-09-16T11:16:42.765Z,480
2018-09-16T11:17:42.515Z,485
2018-09-16T11:18:42.769Z,520
2018-09-16T11:19:42.511Z,530
2018-09-16T11:20:42.765Z,495
2018-09-16T11:21:42.770Z,455
2018-09-16T11:22:42.776Z,430
2018-09-16T11:23:42.267Z,415
2018-09-16T11:24:42.780Z,405
2018-09-16T11:25:42.785Z,405
2018-09-16T11:26:42.778Z,425
2018-09-16T11:27:42.521Z,395
2018-09-16T11:28:42.778Z,355
2018-09-16T11:29:42.775Z,320
2018-09-16T11:30:42.786Z,310
2018-09-16T11:31:42.781Z,325
2018-09-16T11:32:42.783Z,330
2018-09-16T11:33:42.784Z,350
2018-09-16T11:34:42.792Z,365
2018-09-16T11:35:43.241Z,370
2018-09-16T11:36:42.797Z,385
2018-09-16T11:37:42.801Z,415
2018-09-16T11:38:42.787Z,450
2018-09-16T11:39:42.546Z,470
2018-09-16T11:40:42.792Z,455
2018-09-16T11:41:42.794Z,420
2018-09-16T11:42:42.803Z,385
2018-09-16T11:43:42.802Z,370
2018-09-16T11:44:42.847Z,375
2018-09-16T11:45:42.796Z,395
2018-09-16T11:46:42.807Z,400
2018-09-16T11:47:42.295Z,400
2018-09-16T11:48:42.296Z,385
2018-09-16T11:49:42.553Z,365
2018-09-16T11:50:42.556Z,350
2018-09-16T11:51:43.255Z,340
2018-09-16T11:52:42.567Z,335
2018-09-16T11:53:42.561Z,330
2018-09-16T11:54:42.558Z,340
2018-09-16T11:55:42.318Z,375
2018-09-16T11:56:42.810Z,420
2018-09-16T11:57:42.814Z,430
2018-09-16T11:58:42.568Z,455
2018-09-16T11:59:42.564Z,485
2018-09-16T12:00:42.568Z,485
2018-09-16T12:01:42.821Z,480
2018-09-16T12:02:42.819Z,455
2018-09-16T12:03:42.830Z,455
2018-09-16T12:04:42.824Z,435
2018-09-16T12:05:42.822Z,440
2018-09-16T12:06:42.825Z,445
2018-09-16T12:07:42.828Z,435
2018-09-16T12:08:42.833Z,445
2018-09-16T12:09:42.577Z,435
2018-09-16T12:10:42.577Z,455
2018-09-16T12:11:42.986Z,450
2018-09-16T12:12:42.835Z,455
2018-09-16T12:13:42.835Z,455
2018-09-16T12:14:42.837Z,440
2018-09-16T12:15:42.835Z,440
2018-09-16T12:16:42.850Z,460
2018-09-16T12:17:42.850Z,475
2018-09-16T12:18:42.592Z,470
2018-09-16T12:19:42.348Z,460
2018-09-16T12:20:42.859Z,445
2018-09-16T12:21:42.853Z,430
2018-09-16T12:22:42.859Z,405
2018-09-16T12:23:42.905Z,405
2018-09-16T12:24:42.852Z,395
2018-09-16T12:25:42.874Z,410
2018-09-16T12:26:42.382Z,445
2018-09-16T12:27:42.856Z,475
2018-09-16T12:28:42.856Z,490
2018-09-16T12:29:42.862Z,495
2018-09-16T12:30:42.625Z,500
2018-09-16T12:31:42.618Z,490
2018-09-16T12:32:42.617Z,470
2018-09-16T12:33:42.615Z,455
2018-09-16T12:34:42.879Z,440
2018-09-16T12:35:42.882Z,420
2018-09-16T12:36:42.372Z,410
2018-09-16T12:37:42.369Z,380
2018-09-16T12:38:42.377Z,360
2018-09-16T12:39:42.377Z,330
2018-09-16T12:40:42.381Z,310
2018-09-16T12:41:42.893Z,295
2018-09-16T12:42:42.380Z,285
2018-09-16T12:43:42.391Z,275
2018-09-16T12:44:42.642Z,270
2018-09-16T12:45:42.637Z,265
2018-09-16T12:46:42.904Z,250
2018-09-16T12:47:42.395Z,245
2018-09-16T12:48:42.898Z,265
2018-09-16T12:49:42.902Z,270
2018-09-16T12:50:42.650Z,290
2018-09-16T12:51:42.649Z,305
2018-09-16T12:52:42.653Z,345
2018-09-16T12:53:42.912Z,365
2018-09-16T12:54:42.656Z,375
2018-09-16T12:55:42.915Z,335
2018-09-16T12:56:42.915Z,305
2018-09-16T12:57:42.667Z,300
2018-09-16T12:58:42.917Z,300
2018-09-16T12:59:42.920Z,305
2018-09-16T13:00:42.663Z,305
2018-09-16T13:01:42.667Z,305
2018-09-16T13:02:42.931Z,295
2018-09-16T13:03:42.920Z,285
2018-09-16T13:04:42.791Z,275
2018-09-16T13:05:42.167Z,270
2018-09-16T13:06:42.678Z,280
2018-09-16T13:07:42.922Z,280
2018-09-16T13:08:42.424Z,280
2018-09-16T13:09:42.934Z,285
2018-09-16T13:10:42.682Z,300
2018-09-16T13:11:42.935Z,325
2018-09-16T13:12:42.932Z,355
2018-09-16T13:13:43.074Z,360
2018-09-16T13:14:42.679Z,345
2018-09-16T13:15:42.945Z,340
2018-09-16T13:16:42.680Z,330
2018-09-16T13:17:42.974Z,310
2018-09-16T13:18:42.943Z,295
2018-09-16T13:19:42.434Z,280
2018-09-16T13:20:42.931Z,265
2018-09-16T13:21:42.683Z,250
2018-09-16T13:22:42.682Z,245
2018-09-16T13:23:42.682Z,235
2018-09-16T13:24:42.434Z,230
2018-09-16T13:25:42.938Z,225
2018-09-16T13:26:42.683Z,220
2018-09-16T13:27:42.685Z,230
2018-09-16T13:28:43.184Z,230
2018-09-16T13:29:42.941Z,230
2018-09-16T13:30:42.430Z,240
2018-09-16T13:31:42.690Z,255
2018-09-16T13:32:42.939Z,265
2018-09-16T13:33:42.700Z,280
2018-09-16T13:34:42.989Z,300
2018-09-16T13:35:42.438Z,315
2018-09-16T13:36:42.442Z,330
2018-09-16T13:37:42.686Z,345
2018-09-16T13:38:42.688Z,350
2018-09-16T13:39:42.748Z,365
2018-09-16T13:40:42.436Z,360
2018-09-16T13:41:42.443Z,360
2018-09-16T13:42:42.433Z,355
2018-09-16T13:43:42.689Z,335
2018-09-16T13:44:42.693Z,315
2018-09-16T13:45:42.452Z,290
2018-09-16T13:46:42.441Z,280
2018-09-16T13:47:42.943Z,275
2018-09-16T13:48:42.693Z,275
2018-09-16T13:49:42.690Z,265
2018-09-16T13:50:42.941Z,270
2018-09-16T13:51:42.714Z,280
2018-09-16T13:52:42.955Z,275
2018-09-16T13:53:43.531Z,255
2018-09-16T13:54:42.690Z,235
2018-09-16T13:55:42.943Z,235
2018-09-16T13:56:42.947Z,220
2018-09-16T13:57:42.699Z,215
2018-09-16T13:58:42.695Z,205
2018-09-16T13:59:43.056Z,205
2018-09-16T14:00:42.700Z,200
2018-09-16T14:01:42.698Z,185
2018-09-16T14:02:43.430Z,185
2018-09-16T14:03:42.695Z,175
2018-09-16T14:04:42.446Z,175
2018-09-16T14:05:42.698Z,190